createdAt,value
2018-11-20T00:01:46.142Z,27.67
2018-11-20T00:04:18.512Z,24.87
2018-11-20T00:06:37.816Z,27.87
2018-11-20T00:09:13.530Z,23.42
2018-11-20T00:11:43.370Z,21.50
2018-11-20T00:14:05.590Z,26.65
2018-11-20T00:16:35.391Z,26.42
2018-11-20T00:18:54.307Z,27.80
2018-11-20T00:21:30.060Z,24.95
2018-11-20T00:23:52.727Z,23.70
2018-11-20T00:26:13.611Z,24.52
2018-11-20T00:28:32.895Z,26.77
2018-11-20T00:30:55.132Z,26.23
2018-11-20T00:33:17.748Z,27.05
2018-11-20T00:35:41.438Z,25.30
2018-11-20T00:38:03.679Z,24.25
2018-11-20T00:40:36.152Z,27.40
2018-11-20T00:42:58.501Z,28.47
2018-11-20T00:45:40.354Z,26.90
2018-11-20T00:48:02.423Z,26.48
2018-11-20T00:50:25.106Z,25.27
2018-11-20T00:52:47.423Z,25.23
2018-11-20T00:55:20.092Z,27.60
2018-11-20T00:57:43.806Z,29.63
2018-11-20T01:00:19.745Z,26.68
2018-11-20T01:02:55.364Z,28.67
2018-11-20T01:05:18.631Z,27.02
2018-11-20T01:07:42.349Z,26.15
2018-11-20T01:10:02.900Z,26.30
2018-11-20T01:12:26.612Z,27.45
2018-11-20T01:14:49.097Z,24.12
2018-11-20T01:17:15.946Z,25.70
2018-11-20T01:19:39.674Z,29.15
2018-11-20T01:21:58.415Z,29.20
2018-11-20T01:24:20.658Z,30.12
2018-11-20T01:26:38.682Z,30.27
2018-11-20T01:29:02.783Z,30.12
2018-11-20T01:31:25.013Z,31.70
2018-11-20T01:33:58.747Z,28.10
2018-11-20T01:36:34.482Z,28.55
2018-11-20T01:39:10.493Z,31.02
2018-11-20T01:41:36.929Z,33.55
2018-11-20T01:44:09.834Z,28.75
2018-11-20T01:46:24.917Z,31.25
2018-11-20T01:48:46.158Z,33.33
2018-11-20T01:51:18.710Z,32.53
2018-11-20T01:53:42.370Z,28.52
2018-11-20T01:56:04.099Z,34.70
2018-11-20T01:58:29.068Z,33.18
2018-11-20T02:00:58.679Z,30.15
2018-11-20T02:03:15.732Z,35.00
2018-11-20T02:05:38.245Z,34.30
2018-11-20T02:08:00.627Z,33.78
2018-11-20T02:10:39.404Z,34.92
2018-11-20T02:13:34.966Z,33.60
2018-11-20T02:15:53.718Z,33.42
2018-11-20T02:18:19.128Z,32.45
2018-11-20T02:20:53.476Z,36.23
2018-11-20T02:23:32.414Z,37.83
2018-11-20T02:25:50.784Z,36.40
2018-11-20T02:28:13.705Z,35.50
2018-11-20T02:30:36.425Z,32.93
2018-11-20T02:32:54.390Z,37.33
2018-11-20T02:35:17.031Z,37.70
2018-11-20T02:37:39.513Z,37.42
2018-11-20T02:40:03.447Z,36.50
2018-11-20T02:42:27.200Z,36.90
2018-11-20T02:44:53.644Z,38.23
2018-11-20T02:47:12.200Z,35.40
2018-11-20T02:49:45.551Z,37.93
2018-11-20T02:52:11.416Z,34.92
2018-11-20T02:54:35.093Z,37.10
2018-11-20T02:56:57.449Z,36.38
2018-11-20T02:59:24.038Z,37.63
2018-11-20T03:01:53.363Z,38.23
2018-11-20T03:04:19.974Z,39.35
2018-11-20T03:06:47.382Z,38.42
2018-11-20T03:09:11.169Z,38.90
2018-11-20T03:11:37.569Z,39.65
2018-11-20T03:13:56.329Z,39.13
2018-11-20T03:16:21.079Z,40.80
2018-11-20T03:18:41.010Z,39.38
2018-11-20T03:21:10.523Z,39.75
2018-11-20T03:23:33.065Z,36.93
2018-11-20T03:26:09.548Z,40.45
2018-11-20T03:28:21.937Z,39.53
2018-11-20T03:31:30.282Z,36.85
2018-11-20T03:33:52.846Z,38.25
2018-11-20T03:36:15.612Z,37.23
2018-11-20T03:38:45.352Z,42.67
2018-11-20T03:41:06.134Z,42.15
2018-11-20T03:43:21.966Z,37.10
2018-11-20T03:45:40.923Z,41.10
2018-11-20T03:48:03.363Z,38.05
2018-11-20T03:50:29.696Z,39.30
2018-11-20T03:52:51.471Z,40.55
2018-11-20T03:55:09.887Z,39.73
2018-11-20T03:57:35.941Z,40.65
2018-11-20T03:59:58.561Z,37.78
2018-11-20T04:02:25.225Z,39.85
2018-11-20T04:04:48.997Z,42.25
2018-11-20T04:07:24.955Z,42.35
2018-11-20T04:09:47.572Z,39.50
2018-11-20T04:12:11.309Z,37.65
2018-11-20T04:14:46.021Z,42.13
2018-11-20T04:17:24.919Z,41.68
2018-11-20T04:19:51.564Z,41.58
2018-11-20T04:22:15.362Z,36.75
2018-11-20T04:24:39.030Z,35.80
2018-11-20T04:27:08.818Z,39.65
2018-11-20T04:29:22.349Z,39.85
2018-11-20T04:32:17.495Z,40.40
2018-11-20T04:34:39.612Z,40.75
2018-11-20T04:37:12.119Z,41.85
2018-11-20T04:39:34.705Z,39.67
2018-11-20T04:41:58.241Z,44.30
2018-11-20T04:44:28.594Z,42.27
2018-11-20T04:46:50.904Z,40.17
2018-11-20T04:49:26.412Z,37.65
2018-11-20T04:52:05.238Z,40.00
2018-11-20T04:54:34.704Z,38.50
2018-11-20T04:56:53.448Z,37.30
2018-11-20T04:59:18.075Z,39.67
2018-11-20T05:01:41.826Z,40.05
2018-11-20T05:04:09.366Z,41.05
2018-11-20T05:06:42.426Z,43.45
2018-11-20T05:09:21.399Z,41.92
2018-11-20T05:11:54.088Z,41.15
2018-11-20T05:14:29.757Z,41.50
2018-11-20T05:16:52.106Z,44.15
2018-11-20T05:19:20.727Z,43.20
2018-11-20T05:21:40.307Z,42.58
2018-11-20T05:24:16.274Z,39.90
2018-11-20T05:26:38.656Z,38.23
2018-11-20T05:28:59.003Z,37.42
2018-11-20T05:31:28.632Z,40.85
2018-11-20T05:33:45.623Z,42.35
2018-11-20T05:36:15.395Z,42.45
2018-11-20T05:38:30.053Z,42.98
2018-11-20T05:41:00.636Z,38.98
2018-11-20T05:43:24.185Z,41.92
2018-11-20T05:45:50.463Z,41.75
2018-11-20T05:48:14.107Z,39.58
2018-11-20T05:50:36.621Z,43.38
2018-11-20T05:52:59.603Z,39.33
2018-11-20T05:55:26.477Z,40.40
2018-11-20T05:57:51.586Z,38.73
2018-11-20T06:00:19.602Z,38.35
2018-11-20T06:02:41.880Z,37.20
2018-11-20T06:05:15.881Z,39.38
2018-11-20T06:07:28.756Z,40.65
2018-11-20T06:10:01.826Z,39.97
2018-11-20T06:12:24.539Z,38.88
2018-11-20T06:14:54.474Z,39.25
2018-11-20T06:17:12.765Z,42.70
2018-11-20T06:19:39.389Z,36.42
2018-11-20T06:22:07.020Z,43.17
2018-11-20T06:24:49.182Z,40.80
2018-11-20T06:27:15.708Z,37.78
2018-11-20T06:29:51.614Z,38.58
2018-11-20T06:32:07.344Z,40.55
2018-11-20T06:34:28.634Z,37.63
2018-11-20T06:37:04.744Z,38.92
2018-11-20T06:39:30.297Z,36.93
2018-11-20T06:41:52.800Z,40.23
2018-11-20T06:44:15.438Z,41.92
2018-11-20T06:46:38.032Z,39.20
2018-11-20T06:49:02.060Z,42.65
2018-11-20T06:51:28.880Z,38.05
2018-11-20T06:53:52.763Z,43.90
2018-11-20T06:56:19.546Z,37.63
2018-11-20T06:58:58.395Z,36.98
2018-11-20T07:01:20.986Z,36.73
2018-11-20T07:03:44.850Z,39.45
2018-11-20T07:06:07.222Z,37.45
2018-11-20T07:08:30.927Z,37.33
2018-11-20T07:10:48.612Z,39.25
2018-11-20T07:13:11.656Z,35.35
2018-11-20T07:15:34.436Z,36.85
2018-11-20T07:17:53.788Z,38.17
2018-11-20T07:20:17.565Z,36.10
2018-11-20T07:22:44.344Z,39.80
2018-11-20T07:25:17.079Z,38.15
2018-11-20T07:27:39.599Z,35.48
2018-11-20T07:30:03.552Z,35.83
2018-11-20T07:32:26.503Z,37.95
2018-11-20T07:34:50.720Z,36.63
2018-11-20T07:37:05.525Z,34.65
2018-11-20T07:39:41.222Z,33.40
2018-11-20T07:42:03.517Z,32.10
2018-11-20T07:44:24.463Z,34.03
2018-11-20T07:46:58.458Z,35.17
2018-11-20T07:49:21.280Z,36.42
2018-11-20T07:51:46.562Z,35.58
2018-11-20T07:54:06.629Z,32.00
2018-11-20T07:56:31.191Z,34.40
2018-11-20T07:59:02.463Z,35.78
2018-11-20T08:01:44.395Z,36.48
2018-11-20T08:04:06.740Z,34.60
2018-11-20T08:06:29.210Z,33.67
2018-11-20T08:08:52.994Z,33.88
2018-11-20T08:11:04.553Z,34.00
2018-11-20T08:13:33.017Z,35.95
2018-11-20T08:15:55.704Z,31.90
2018-11-20T08:18:11.375Z,33.55
2018-11-20T08:20:35.130Z,33.40
2018-11-20T08:22:57.518Z,32.85
2018-11-20T08:25:20.014Z,34.27
2018-11-20T08:27:55.708Z,33.65
2018-11-20T08:30:37.756Z,35.90
2018-11-20T08:33:13.895Z,33.63
2018-11-20T08:35:38.767Z,37.00
2018-11-20T08:37:52.160Z,32.73
2018-11-20T08:40:31.244Z,32.83
2018-11-20T08:42:53.836Z,34.78
2018-11-20T08:45:16.274Z,36.00
2018-11-20T08:47:46.059Z,31.25
2018-11-20T08:50:21.801Z,30.15
2018-11-20T08:52:48.754Z,33.10
2018-11-20T08:55:11.422Z,32.30
2018-11-20T08:57:50.283Z,30.45
2018-11-20T09:00:14.029Z,27.90
2018-11-20T09:02:38.010Z,30.02
2018-11-20T09:05:10.669Z,28.95
2018-11-20T09:07:46.087Z,30.92
2018-11-20T09:10:13.469Z,28.05
2018-11-20T09:12:33.553Z,28.85
2018-11-20T09:15:48.862Z,30.23
2018-11-20T09:18:10.307Z,28.40
2018-11-20T09:20:45.541Z,29.35
2018-11-20T09:22:57.102Z,28.45
2018-11-20T09:25:32.233Z,31.57
2018-11-20T09:28:01.243Z,33.08
2018-11-20T09:30:23.852Z,29.20
2018-11-20T09:32:44.904Z,28.10
2018-11-20T09:35:07.637Z,30.50
2018-11-20T09:37:45.734Z,29.27
2018-11-20T09:40:44.444Z,29.12
2018-11-20T09:43:01.725Z,33.00
2018-11-20T09:45:42.547Z,29.67
2018-11-20T09:48:08.088Z,28.50
2018-11-20T09:50:22.969Z,30.88
2018-11-20T09:52:45.997Z,25.97
2018-11-20T09:55:08.846Z,27.70
2018-11-20T09:57:30.555Z,31.57
2018-11-20T09:59:56.279Z,24.75
2018-11-20T10:02:17.889Z,29.27
2018-11-20T10:04:40.893Z,28.40
2018-11-20T10:07:03.390Z,27.15
2018-11-20T10:09:34.956Z,26.20
2018-11-20T10:11:58.211Z,27.82
2018-11-20T10:14:19.836Z,26.97
2018-11-20T10:16:41.625Z,27.52
2018-11-20T10:19:07.055Z,29.15
2018-11-20T10:21:41.812Z,32.30
2018-11-20T10:24:03.452Z,28.20
2018-11-20T10:26:35.273Z,26.37
2018-11-20T10:28:55.231Z,26.82
2018-11-20T10:31:36.328Z,27.30
2018-11-20T10:33:57.990Z,29.55
2018-11-20T10:36:20.892Z,30.32
2018-11-20T10:38:42.512Z,26.73
2018-11-20T10:40:55.021Z,26.52
2018-11-20T10:43:23.693Z,29.45
2018-11-20T10:45:58.364Z,27.15
2018-11-20T10:48:19.753Z,29.67
2018-11-20T10:50:41.751Z,26.97
2018-11-20T10:53:04.676Z,25.45
2018-11-20T10:55:18.965Z,26.85
2018-11-20T10:57:57.149Z,29.18
2018-11-20T11:00:22.767Z,27.87
2018-11-20T11:02:44.828Z,26.80
2018-11-20T11:05:13.628Z,23.27
2018-11-20T11:07:52.109Z,24.35
2018-11-20T11:10:00.046Z,26.93
2018-11-20T11:12:17.673Z,27.17
2018-11-20T11:14:39.889Z,25.43
2018-11-20T11:17:11.756Z,25.60
2018-11-20T11:19:37.884Z,27.20
2018-11-20T11:22:06.739Z,25.68
2018-11-20T11:24:28.737Z,25.82
2018-11-20T11:26:51.752Z,29.27
2018-11-20T11:29:23.820Z,31.23
2018-11-20T11:31:46.762Z,28.60
2018-11-20T11:34:17.791Z,29.67
2018-11-20T11:36:59.738Z,31.25
2018-11-20T11:39:24.408Z,29.37
2018-11-20T11:41:47.344Z,31.35
2018-11-20T11:44:09.068Z,30.37
2018-11-20T11:46:46.027Z,30.75
2018-11-20T11:49:07.943Z,32.00
2018-11-20T11:51:41.474Z,28.45
2018-11-20T11:54:06.457Z,25.60
2018-11-20T11:56:36.332Z,29.72
2018-11-20T11:58:50.913Z,32.00
2018-11-20T12:01:12.868Z,30.32
2018-11-20T12:03:38.456Z,30.57
2018-11-20T12:06:13.300Z,28.73
2018-11-20T12:08:39.120Z,31.15
2018-11-20T12:10:54.014Z,31.25
2018-11-20T12:13:23.111Z,32.55
2018-11-20T12:15:45.038Z,33.40
2018-11-20T12:18:10.737Z,31.70
2018-11-20T12:20:28.878Z,33.63
2018-11-20T12:22:50.698Z,35.15
2018-11-20T12:25:13.647Z,34.73
2018-11-20T12:27:49.097Z,33.90
2018-11-20T12:30:10.127Z,28.85
2018-11-20T12:32:52.306Z,30.95
2018-11-20T12:35:33.155Z,29.90
2018-11-20T12:37:59.346Z,32.35
2018-11-20T12:40:23.236Z,32.60
2018-11-20T12:42:44.978Z,33.13
2018-11-20T12:45:15.610Z,33.85
2018-11-20T12:47:35.189Z,34.50
2018-11-20T12:49:56.838Z,35.08
2018-11-20T12:52:34.914Z,31.35
2018-11-20T12:54:57.340Z,33.67
2018-11-20T12:57:18.784Z,31.85
2018-11-20T12:59:41.527Z,37.35
2018-11-20T13:02:16.548Z,31.12
2018-11-20T13:04:44.204Z,30.48
2018-11-20T13:07:06.066Z,33.33
2018-11-20T13:09:29.332Z,33.50
2018-11-20T13:11:51.041Z,34.83
2018-11-20T13:14:11.704Z,33.13
2018-11-20T13:16:27.332Z,32.50
2018-11-20T13:18:54.289Z,30.68
2018-11-20T13:21:19.452Z,33.20
2018-11-20T13:23:42.609Z,35.45
2018-11-20T13:25:58.845Z,32.48
2018-11-20T13:28:21.845Z,32.17
2018-11-20T13:30:43.339Z,32.35
2018-11-20T13:33:05.148Z,31.87
2018-11-20T13:35:27.539Z,34.70
2018-11-20T13:38:05.811Z,31.48
2018-11-20T13:41:01.743Z,29.82
2018-11-20T13:43:22.420Z,32.20
2018-11-20T13:45:48.109Z,31.85
2018-11-20T13:48:12.618Z,31.93
2018-11-20T13:50:41.119Z,32.05
2018-11-20T13:53:12.997Z,33.50
2018-11-20T13:55:36.000Z,31.95
2018-11-20T13:57:49.054Z,31.02
2018-11-20T14:00:10.667Z,30.20
2018-11-20T14:02:32.599Z,29.50
2018-11-20T14:05:07.542Z,25.30
2018-11-20T14:07:39.666Z,25.85
2018-11-20T14:10:02.643Z,30.12
2018-11-20T14:12:28.771Z,29.37
2018-11-20T14:14:51.800Z,32.20
2018-11-20T14:17:14.841Z,29.90
2018-11-20T14:19:42.678Z,27.35
2018-11-20T14:22:05.052Z,31.17
2018-11-20T14:24:29.849Z,26.97
2018-11-20T14:26:59.396Z,27.35
2018-11-20T14:29:21.215Z,25.25
2018-11-20T14:31:49.804Z,28.80
2018-11-20T14:34:15.771Z,23.73
2018-11-20T14:36:50.650Z,29.45
2018-11-20T14:39:16.500Z,24.05
2018-11-20T14:41:37.581Z,27.05
2018-11-20T14:44:00.627Z,27.52
2018-11-20T14:46:14.700Z,25.60
2018-11-20T14:48:37.812Z,26.50
2018-11-20T14:51:03.459Z,24.55
2018-11-20T14:53:21.455Z,24.90
2018-11-20T14:55:43.196Z,24.10
2018-11-20T14:58:05.136Z,27.07
2018-11-20T15:00:31.025Z,27.37
2018-11-20T15:02:52.987Z,24.20
2018-11-20T15:05:18.267Z,33.35
2018-11-20T15:07:39.998Z,25.77
2018-11-20T15:10:01.689Z,28.15
2018-11-20T15:12:23.699Z,26.30
2018-11-20T15:14:45.455Z,26.33
2018-11-20T15:17:23.387Z,29.92
2018-11-20T15:19:44.593Z,27.45
2018-11-20T15:22:06.146Z,24.80
2018-11-20T15:24:28.018Z,30.50
2018-11-20T15:26:59.382Z,31.30
2018-11-20T15:29:21.453Z,31.30
2018-11-20T15:31:43.317Z,28.45
2018-11-20T15:34:03.924Z,29.70
2018-11-20T15:36:29.448Z,30.80
2018-11-20T15:38:58.324Z,31.02
2018-11-20T15:41:21.271Z,28.80
2018-11-20T15:43:59.225Z,31.97
2018-11-20T15:46:28.223Z,32.40
2018-11-20T15:48:51.286Z,27.90
2018-11-20T15:51:12.916Z,29.82
2018-11-20T15:53:39.193Z,33.08
2018-11-20T15:56:02.143Z,29.98
2018-11-20T15:58:31.165Z,29.87
2018-11-20T16:00:52.850Z,28.77
2018-11-20T16:03:22.943Z,32.42
2018-11-20T16:05:38.656Z,25.27
2018-11-20T16:08:00.370Z,27.35
2018-11-20T16:10:23.307Z,30.35
2018-11-20T16:12:44.729Z,27.35
2018-11-20T16:15:17.102Z,27.17
2018-11-20T16:17:58.182Z,28.10
2018-11-20T16:20:23.969Z,30.97
2018-11-20T16:22:53.647Z,27.50
2018-11-20T16:25:28.958Z,31.23
2018-11-20T16:27:50.706Z,28.95
2018-11-20T16:30:22.645Z,29.07
2018-11-20T16:32:39.661Z,33.58
2018-11-20T16:35:05.398Z,30.55
2018-11-20T16:37:31.133Z,29.45
2018-11-20T16:40:09.365Z,33.80
2018-11-20T16:42:41.546Z,31.57
2018-11-20T16:45:03.267Z,29.57
2018-11-20T16:47:30.363Z,30.08
2018-11-20T16:50:02.519Z,34.10
2018-11-20T16:52:24.177Z,34.35
2018-11-20T16:54:36.364Z,34.58
2018-11-20T16:57:14.229Z,32.80
2018-11-20T16:59:52.475Z,33.88
2018-11-20T17:02:18.048Z,28.90
2018-11-20T17:04:49.849Z,30.97
2018-11-20T17:07:11.613Z,34.45
2018-11-20T17:09:30.637Z,31.25
2018-11-20T17:11:59.738Z,32.23
2018-11-20T17:14:25.551Z,32.50
2018-11-20T17:16:41.750Z,32.75
2018-11-20T17:19:03.429Z,32.08
2018-11-20T17:21:41.505Z,26.57
2018-11-20T17:24:03.752Z,32.00
2018-11-20T17:26:24.747Z,34.23
2018-11-20T17:28:49.611Z,27.25
2018-11-20T17:31:08.437Z,34.55
2018-11-20T17:33:46.572Z,32.00
2018-11-20T17:36:08.397Z,33.28
2018-11-20T17:38:30.519Z,29.32
2018-11-20T17:41:05.324Z,28.32
2018-11-20T17:43:28.312Z,33.90
2018-11-20T17:45:49.978Z,29.37
2018-11-20T17:48:11.792Z,31.82
2018-11-20T17:50:33.430Z,31.55
2018-11-20T17:52:59.166Z,33.13
2018-11-20T17:55:34.516Z,36.05
2018-11-20T17:57:57.133Z,26.30
2018-11-20T18:00:09.921Z,32.30
2018-11-20T18:02:31.507Z,28.52
2018-11-20T18:04:56.980Z,30.00
2018-11-20T18:07:18.546Z,29.27
2018-11-20T18:09:34.340Z,29.30
2018-11-20T18:11:52.359Z,31.23
2018-11-20T18:14:21.132Z,31.70
2018-11-20T18:16:46.716Z,30.88
2018-11-20T18:19:21.892Z,28.52
2018-11-20T18:21:43.857Z,30.48
2018-11-20T18:24:06.081Z,31.12
2018-11-20T18:26:27.518Z,27.30
2018-11-20T18:28:59.376Z,29.23
2018-11-20T18:31:31.652Z,31.50
2018-11-20T18:33:53.246Z,26.73
2018-11-20T18:36:16.268Z,28.67
2018-11-20T18:38:38.187Z,27.93
2018-11-20T18:40:59.877Z,28.00
2018-11-20T18:43:31.848Z,32.93
2018-11-20T18:45:57.850Z,25.90
2018-11-20T18:48:20.269Z,28.25
2018-11-20T18:50:33.252Z,26.33
2018-11-20T18:53:05.261Z,26.62
2018-11-20T18:55:24.582Z,23.92
2018-11-20T18:57:44.493Z,25.37
2018-11-20T19:00:06.099Z,27.00
2018-11-20T19:02:23.222Z,22.42
2018-11-20T19:04:39.545Z,26.95
2018-11-20T19:07:01.423Z,23.85
2018-11-20T19:09:36.247Z,28.83
2018-11-20T19:12:08.180Z,26.80
2018-11-20T19:14:43.319Z,28.95
2018-11-20T19:17:05.144Z,26.73
2018-11-20T19:19:26.511Z,26.10
2018-11-20T19:21:49.439Z,29.02
2018-11-20T19:24:24.959Z,27.02
2018-11-20T19:26:46.475Z,25.32
2018-11-20T19:29:24.709Z,25.37
2018-11-20T19:31:53.458Z,21.23
2018-11-20T19:34:28.569Z,25.48
2018-11-20T19:36:50.015Z,24.07
2018-11-20T19:39:28.531Z,27.15
2018-11-20T19:41:50.156Z,27.10
2018-11-20T19:44:09.930Z,27.85
2018-11-20T19:46:46.197Z,28.98
2018-11-20T19:49:27.479Z,28.55
2018-11-20T19:52:00.544Z,28.02
2018-11-20T19:54:19.394Z,29.85
2018-11-20T19:56:42.330Z,26.87
2018-11-20T19:59:05.407Z,27.13
2018-11-20T20:01:25.994Z,26.55
2018-11-20T20:03:57.805Z,27.40
2018-11-20T20:06:19.503Z,25.90
2018-11-20T20:08:33.055Z,27.82
2018-11-20T20:10:53.912Z,26.00
2018-11-20T20:13:22.859Z,25.85
2018-11-20T20:15:44.704Z,27.35
2018-11-20T20:18:05.834Z,23.35
2018-11-20T20:20:41.052Z,21.90
2018-11-20T20:23:02.798Z,23.02
2018-11-20T20:25:28.872Z,23.90
2018-11-20T20:27:51.828Z,22.55
2018-11-20T20:30:23.491Z,24.92
2018-11-20T20:33:01.486Z,22.52
2018-11-20T20:35:21.464Z,22.40
2018-11-20T20:37:55.919Z,22.80
2018-11-20T20:40:29.628Z,24.70
2018-11-20T20:43:04.997Z,24.12
2018-11-20T20:45:39.867Z,22.13
2018-11-20T20:47:58.230Z,22.62
2018-11-20T20:50:11.982Z,22.90
2018-11-20T20:52:37.937Z,26.60
2018-11-20T20:55:03.856Z,22.27
2018-11-20T20:57:20.227Z,21.75
2018-11-20T20:59:41.970Z,23.77
2018-11-20T21:01:55.785Z,22.07
2018-11-20T21:04:25.087Z,22.95
2018-11-20T21:06:37.873Z,23.38
2018-11-20T21:08:57.064Z,21.30
2018-11-20T21:11:18.480Z,22.00
2018-11-20T21:13:56.528Z,22.90
2018-11-20T21:16:31.463Z,21.17
2018-11-20T21:19:09.799Z,23.73
2018-11-20T21:21:31.624Z,23.65
2018-11-20T21:23:45.352Z,21.05
2018-11-20T21:26:09.904Z,23.55
2018-11-20T21:28:31.617Z,22.65
2018-11-20T21:30:56.089Z,21.55
2018-11-20T21:33:37.170Z,26.00
2018-11-20T21:36:18.732Z,24.47
2018-11-20T21:38:40.657Z,25.50
2018-11-20T21:41:15.556Z,24.35
2018-11-20T21:43:36.898Z,24.05
2018-11-20T21:46:05.541Z,22.82
2018-11-20T21:48:34.679Z,23.52
2018-11-20T21:51:06.621Z,24.00
2018-11-20T21:53:32.647Z,25.27
2018-11-20T21:55:56.000Z,25.90
2018-11-20T21:58:17.489Z,26.20
2018-11-20T22:01:06.280Z,25.85
2018-11-20T22:03:23.816Z,27.62
2018-11-20T22:05:44.544Z,27.10
2018-11-20T22:08:06.089Z,25.48
2018-11-20T22:10:31.780Z,29.72
2018-11-20T22:13:12.953Z,30.12
2018-11-20T22:15:34.809Z,31.25
2018-11-20T22:17:56.576Z,29.90
2018-11-20T22:20:31.440Z,28.23
2018-11-20T22:22:52.969Z,26.70
2018-11-20T22:25:15.877Z,27.45
2018-11-20T22:27:37.631Z,32.30
2018-11-20T22:30:18.861Z,31.73
2018-11-20T22:32:40.285Z,31.42
2018-11-20T22:35:03.224Z,31.68
2018-11-20T22:37:26.201Z,33.15
2018-11-20T22:39:52.084Z,35.13
2018-11-20T22:42:13.578Z,33.65
2018-11-20T22:44:25.279Z,34.80
2018-11-20T22:46:47.202Z,30.00
2018-11-20T22:49:09.172Z,34.67
2018-11-20T22:51:32.083Z,36.55
2018-11-20T22:53:53.731Z,32.33
2018-11-20T22:56:06.311Z,27.75
2018-11-20T22:58:20.686Z,34.27
2018-11-20T23:00:58.861Z,33.88
2018-11-20T23:03:26.052Z,30.27
2018-11-20T23:05:50.423Z,34.73
2018-11-20T23:07:57.840Z,30.52
2018-11-20T23:10:01.674Z,32.50
2018-11-20T23:12:05.647Z,31.05
2018-11-20T23:14:09.490Z,31.30
2018-11-20T23:16:13.339Z,31.80
2018-11-20T23:18:17.209Z,30.72
2018-11-20T23:20:21.037Z,33.25
2018-11-20T23:22:24.884Z,35.50
2018-11-20T23:24:28.734Z,35.40
2018-11-20T23:26:32.592Z,33.88
2018-11-20T23:28:36.504Z,31.97
2018-11-20T23:30:40.378Z,36.38
2018-11-20T23:32:44.215Z,32.53
2018-11-20T23:34:48.108Z,34.83
2018-11-20T23:36:51.990Z,33.45
2018-11-20T23:38:55.821Z,33.70
2018-11-20T23:40:59.728Z,31.17
2018-11-20T23:43:03.645Z,33.90
2018-11-20T23:45:09.996Z,33.42
2018-11-20T23:47:13.899Z,34.43
2018-11-20T23:49:17.807Z,31.15
2018-11-20T23:51:21.660Z,33.13
2018-11-20T23:53:25.565Z,33.80
2018-11-20T23:55:29.442Z,32.25
2018-11-20T23:57:33.373Z,35.83
2018-11-20T23:59:37.385Z,33.65
